createdAt,value
2018-12-15T00:00:21.882Z,19.77
2018-12-15T00:01:24.360Z,19.67
2018-12-15T00:02:26.807Z,21.05
2018-12-15T00:03:29.239Z,17.10
2018-12-15T00:04:31.680Z,19.52
2018-12-15T00:05:34.136Z,18.20
2018-12-15T00:06:36.706Z,19.62
2018-12-15T00:07:39.162Z,19.42
2018-12-15T00:08:41.699Z,19.67
2018-12-15T00:09:44.146Z,21.80
2018-12-15T00:10:46.584Z,21.73
2018-12-15T00:11:49.041Z,20.90
2018-12-15T00:12:51.475Z,22.50
2018-12-15T00:13:53.968Z,19.02
2018-12-15T00:14:56.417Z,20.17
2018-12-15T00:15:58.968Z,19.65
2018-12-15T00:17:05.749Z,18.57
2018-12-15T00:18:06.056Z,24.40
2018-12-15T00:19:08.523Z,23.42
2018-12-15T00:20:10.979Z,20.90
2018-12-15T00:21:13.442Z,19.62
2018-12-15T00:22:15.882Z,19.70
2018-12-15T00:23:18.339Z,20.90
2018-12-15T00:24:20.799Z,19.17
2018-12-15T00:25:23.247Z,20.15
2018-12-15T00:26:25.746Z,18.70
2018-12-15T00:27:28.202Z,17.65
2018-12-15T00:28:30.648Z,16.25
2018-12-15T00:29:33.086Z,16.82
2018-12-15T00:30:35.540Z,15.85
2018-12-15T00:31:37.988Z,16.17
2018-12-15T00:32:40.439Z,17.60
2018-12-15T00:33:42.883Z,17.52
2018-12-15T00:34:45.332Z,17.48
2018-12-15T00:35:47.787Z,16.23
2018-12-15T00:36:50.252Z,17.20
2018-12-15T00:37:52.708Z,15.93
2018-12-15T00:38:55.163Z,16.87
2018-12-15T00:39:57.628Z,16.45
2018-12-15T00:41:00.074Z,15.90
2018-12-15T00:42:02.530Z,17.32
2018-12-15T00:43:04.994Z,16.77
2018-12-15T00:44:07.475Z,17.30
2018-12-15T00:45:09.914Z,17.35
2018-12-15T00:46:12.352Z,17.37
2018-12-15T00:47:14.815Z,17.52
2018-12-15T00:48:17.292Z,18.35
2018-12-15T00:49:19.731Z,17.30
2018-12-15T00:50:22.176Z,15.50
2018-12-15T00:51:24.621Z,16.52
2018-12-15T00:52:27.078Z,15.72
2018-12-15T00:53:29.526Z,16.95
2018-12-15T00:54:31.965Z,16.40
2018-12-15T00:55:34.437Z,16.17
2018-12-15T00:56:36.880Z,18.20
2018-12-15T00:57:39.344Z,16.77
2018-12-15T00:58:41.790Z,17.32
2018-12-15T00:59:44.228Z,17.62
2018-12-15T01:00:46.659Z,18.65
2018-12-15T01:01:49.119Z,18.02
2018-12-15T01:02:51.572Z,19.67
2018-12-15T01:03:54.016Z,18.40
2018-12-15T01:04:56.455Z,18.42
2018-12-15T01:05:58.976Z,17.55
2018-12-15T01:07:01.414Z,19.55
2018-12-15T01:08:03.962Z,17.80
2018-12-15T01:09:06.500Z,18.70
2018-12-15T01:10:08.935Z,18.00
2018-12-15T01:11:11.466Z,19.55
2018-12-15T01:12:13.935Z,17.87
2018-12-15T01:13:16.566Z,18.25
2018-12-15T01:14:19.030Z,18.52
2018-12-15T01:15:27.142Z,19.15
2018-12-15T01:16:29.588Z,19.67
2018-12-15T01:17:32.024Z,19.90
2018-12-15T01:18:34.483Z,20.20
2018-12-15T01:19:36.947Z,17.48
2018-12-15T01:20:39.387Z,17.25
2018-12-15T01:21:41.840Z,17.92
2018-12-15T01:22:44.272Z,18.48
2018-12-15T01:23:46.719Z,18.02
2018-12-15T01:24:49.169Z,18.55
2018-12-15T01:25:51.614Z,17.55
2018-12-15T01:26:54.053Z,17.35
2018-12-15T01:27:56.502Z,19.37
2018-12-15T01:28:58.967Z,17.07
2018-12-15T01:30:01.415Z,18.90
2018-12-15T01:31:03.856Z,18.98
2018-12-15T01:32:06.313Z,17.40
2018-12-15T01:33:08.756Z,18.40
2018-12-15T01:34:11.213Z,19.70
2018-12-15T01:35:13.664Z,19.00
2018-12-15T01:36:16.156Z,20.15
2018-12-15T01:37:18.596Z,18.90
2018-12-15T01:38:21.036Z,17.75
2018-12-15T01:39:23.552Z,18.48
2018-12-15T01:40:25.995Z,18.60
2018-12-15T01:41:28.435Z,18.70
2018-12-15T01:42:30.933Z,18.50
2018-12-15T01:43:33.372Z,16.10
2018-12-15T01:44:35.844Z,18.73
2018-12-15T01:45:38.304Z,18.40
2018-12-15T01:46:40.743Z,18.80
2018-12-15T01:47:43.185Z,18.37
2018-12-15T01:48:45.623Z,17.50
2018-12-15T01:49:48.090Z,17.57
2018-12-15T01:50:50.540Z,18.25
2018-12-15T01:51:52.996Z,19.37
2018-12-15T01:52:55.438Z,18.50
2018-12-15T01:53:57.903Z,19.42
2018-12-15T01:55:00.379Z,18.02
2018-12-15T01:56:02.821Z,20.15
2018-12-15T01:57:05.287Z,17.45
2018-12-15T01:58:07.723Z,17.92
2018-12-15T01:59:10.183Z,18.80
2018-12-15T02:00:13.239Z,19.42
2018-12-15T02:01:15.687Z,20.57
2018-12-15T02:02:18.127Z,22.93
2018-12-15T02:03:20.635Z,21.68
2018-12-15T02:04:23.111Z,21.35
2018-12-15T02:05:25.570Z,20.57
2018-12-15T02:06:28.049Z,20.32
2018-12-15T02:07:30.493Z,21.40
2018-12-15T02:08:32.945Z,21.82
2018-12-15T02:09:35.440Z,23.47
2018-12-15T02:10:37.891Z,20.30
2018-12-15T02:11:40.357Z,20.92
2018-12-15T02:12:42.867Z,19.15
2018-12-15T02:13:45.307Z,20.55
2018-12-15T02:14:47.766Z,19.48
2018-12-15T02:15:50.244Z,20.30
2018-12-15T02:16:52.690Z,20.05
2018-12-15T02:17:55.188Z,20.30
2018-12-15T02:18:57.683Z,19.82
2018-12-15T02:20:00.121Z,19.35
2018-12-15T02:21:02.617Z,20.62
2018-12-15T02:22:05.054Z,23.85
2018-12-15T02:23:07.490Z,20.92
2018-12-15T02:24:09.973Z,23.35
2018-12-15T02:25:12.606Z,20.77
2018-12-15T02:26:15.083Z,20.55
2018-12-15T02:27:17.535Z,22.52
2018-12-15T02:28:19.996Z,20.90
2018-12-15T02:29:22.439Z,22.65
2018-12-15T02:30:25.067Z,20.35
2018-12-15T02:31:27.514Z,21.50
2018-12-15T02:32:29.963Z,24.02
2018-12-15T02:33:32.430Z,23.35
2018-12-15T02:34:34.869Z,22.82
2018-12-15T02:35:37.376Z,20.90
2018-12-15T02:36:39.840Z,21.23
2018-12-15T02:37:42.276Z,19.52
2018-12-15T02:38:44.795Z,19.10
2018-12-15T02:39:47.234Z,22.73
2018-12-15T02:40:50.624Z,20.68
2018-12-15T02:41:53.096Z,23.50
2018-12-15T02:42:55.535Z,22.13
2018-12-15T02:43:57.984Z,21.55
2018-12-15T02:45:00.421Z,23.10
2018-12-15T02:46:02.885Z,23.55
2018-12-15T02:47:05.335Z,20.23
2018-12-15T02:48:07.785Z,20.60
2018-12-15T02:49:10.223Z,21.23
2018-12-15T02:50:12.687Z,21.33
2018-12-15T02:51:15.144Z,25.35
2018-12-15T02:52:17.587Z,24.85
2018-12-15T02:53:20.030Z,24.07
2018-12-15T02:54:22.473Z,22.77
2018-12-15T02:55:24.960Z,20.57
2018-12-15T02:56:27.415Z,23.05
2018-12-15T02:57:29.868Z,21.07
2018-12-15T02:58:32.300Z,23.07
2018-12-15T02:59:34.750Z,22.65
2018-12-15T03:00:37.252Z,22.37
2018-12-15T03:01:39.702Z,22.10
2018-12-15T03:02:42.158Z,21.87
2018-12-15T03:03:44.689Z,21.00
2018-12-15T03:04:47.133Z,19.92
2018-12-15T03:05:49.573Z,20.80
2018-12-15T03:06:52.039Z,19.40
2018-12-15T03:07:54.502Z,19.98
2018-12-15T03:08:56.934Z,19.73
2018-12-15T03:09:59.367Z,19.07
2018-12-15T03:11:01.813Z,20.30
2018-12-15T03:12:04.273Z,21.30
2018-12-15T03:13:06.711Z,21.20
2018-12-15T03:14:09.151Z,21.25
2018-12-15T03:15:11.583Z,20.65
2018-12-15T03:16:14.013Z,22.45
2018-12-15T03:17:16.471Z,20.82
2018-12-15T03:18:18.922Z,21.93
2018-12-15T03:19:21.360Z,23.85
2018-12-15T03:20:23.800Z,24.65
2018-12-15T03:21:26.236Z,23.65
2018-12-15T03:22:28.783Z,22.93
2018-12-15T03:23:31.230Z,22.40
2018-12-15T03:24:33.679Z,21.48
2018-12-15T03:25:36.127Z,21.97
2018-12-15T03:26:38.588Z,21.00
2018-12-15T03:27:41.040Z,23.47
2018-12-15T03:28:43.482Z,21.95
2018-12-15T03:29:45.919Z,21.60
2018-12-15T03:30:48.355Z,19.90
2018-12-15T03:31:50.820Z,20.08
2018-12-15T03:32:53.290Z,19.27
2018-12-15T03:33:55.729Z,20.12
2018-12-15T03:34:58.166Z,21.15
2018-12-15T03:36:00.643Z,21.05
2018-12-15T03:37:03.080Z,23.35
2018-12-15T03:38:05.541Z,22.65
2018-12-15T03:39:07.971Z,22.32
2018-12-15T03:40:10.431Z,20.45
2018-12-15T03:41:12.862Z,23.67
2018-12-15T03:42:15.300Z,23.30
2018-12-15T03:43:17.758Z,26.23
2018-12-15T03:44:20.191Z,27.00
2018-12-15T03:45:22.642Z,26.77
2018-12-15T03:46:25.186Z,26.62
2018-12-15T03:47:27.654Z,24.30
2018-12-15T03:48:30.117Z,28.32
2018-12-15T03:49:32.567Z,23.80
2018-12-15T03:50:35.169Z,23.25
2018-12-15T03:51:37.611Z,20.77
2018-12-15T03:52:40.064Z,23.22
2018-12-15T03:53:42.512Z,22.52
2018-12-15T03:54:44.952Z,20.68
2018-12-15T03:55:47.399Z,22.22
2018-12-15T03:56:49.837Z,22.45
2018-12-15T03:57:52.292Z,23.38
2018-12-15T03:58:54.777Z,20.80
2018-12-15T03:59:57.241Z,19.10
2018-12-15T04:00:59.671Z,19.35
2018-12-15T04:02:02.124Z,19.62
2018-12-15T04:03:04.575Z,20.85
2018-12-15T04:04:08.730Z,19.30
2018-12-15T04:05:11.231Z,17.35
2018-12-15T04:06:13.677Z,18.48
2018-12-15T04:07:16.115Z,17.17
2018-12-15T04:08:18.590Z,16.57
2018-12-15T04:09:21.044Z,17.75
2018-12-15T04:10:23.496Z,18.50
2018-12-15T04:11:25.939Z,18.73
2018-12-15T04:12:28.399Z,20.85
2018-12-15T04:13:30.895Z,19.50
2018-12-15T04:14:33.357Z,21.42
2018-12-15T04:15:36.184Z,21.23
2018-12-15T04:16:38.619Z,19.67
2018-12-15T04:17:41.052Z,21.07
2018-12-15T04:18:43.649Z,20.25
2018-12-15T04:19:46.111Z,20.92
2018-12-15T04:20:48.554Z,22.48
2018-12-15T04:21:50.992Z,21.82
2018-12-15T04:22:53.432Z,21.00
2018-12-15T04:23:55.873Z,20.23
2018-12-15T04:24:58.346Z,21.37
2018-12-15T04:26:00.783Z,20.88
2018-12-15T04:27:03.226Z,22.22
2018-12-15T04:28:05.668Z,22.15
2018-12-15T04:29:10.087Z,22.48
2018-12-15T04:30:12.561Z,22.35
2018-12-15T04:31:15.001Z,19.82
2018-12-15T04:32:17.442Z,21.45
2018-12-15T04:33:19.886Z,19.20
2018-12-15T04:34:22.331Z,17.87
2018-12-15T04:35:24.804Z,17.90
2018-12-15T04:36:27.241Z,18.55
2018-12-15T04:37:29.674Z,21.57
2018-12-15T04:38:32.111Z,21.45
2018-12-15T04:39:34.545Z,22.87
2018-12-15T04:40:37.179Z,22.45
2018-12-15T04:41:39.642Z,21.23
2018-12-15T04:42:42.166Z,18.98
2018-12-15T04:43:44.711Z,19.60
2018-12-15T04:44:47.150Z,21.60
2018-12-15T04:45:49.725Z,23.67
2018-12-15T04:46:52.284Z,19.85
2018-12-15T04:47:54.719Z,20.65
2018-12-15T04:48:57.248Z,21.42
2018-12-15T04:49:59.684Z,20.60
2018-12-15T04:51:02.165Z,21.37
2018-12-15T04:52:04.737Z,20.80
2018-12-15T04:53:07.172Z,20.35
2018-12-15T04:54:09.615Z,18.70
2018-12-15T04:55:12.049Z,20.65
2018-12-15T04:56:14.520Z,18.42
2018-12-15T04:57:16.993Z,18.10
2018-12-15T04:58:19.548Z,18.15
2018-12-15T04:59:21.999Z,20.57
2018-12-15T05:00:24.450Z,19.00
2018-12-15T05:01:26.891Z,19.17
2018-12-15T05:02:29.346Z,19.73
2018-12-15T05:03:31.779Z,18.62
2018-12-15T05:04:34.211Z,20.48
2018-12-15T05:05:36.646Z,19.45
2018-12-15T05:06:39.537Z,18.90
2018-12-15T05:07:41.979Z,18.82
2018-12-15T05:08:44.425Z,18.42
2018-12-15T05:09:46.866Z,18.85
2018-12-15T05:10:49.299Z,20.52
2018-12-15T05:11:51.848Z,18.02
2018-12-15T05:12:54.295Z,18.92
2018-12-15T05:13:56.752Z,18.57
2018-12-15T05:14:59.182Z,17.87
2018-12-15T05:16:01.626Z,19.48
2018-12-15T05:17:04.083Z,19.17
2018-12-15T05:18:06.523Z,19.10
2018-12-15T05:19:08.992Z,19.73
2018-12-15T05:20:11.426Z,19.62
2018-12-15T05:21:13.862Z,20.02
2018-12-15T05:22:16.413Z,19.70
2018-12-15T05:23:18.868Z,19.82
2018-12-15T05:24:21.312Z,18.95
2018-12-15T05:25:23.800Z,20.52
2018-12-15T05:26:26.238Z,20.23
2018-12-15T05:27:28.892Z,20.02
2018-12-15T05:28:31.351Z,18.40
2018-12-15T05:29:33.794Z,17.05
2018-12-15T05:30:36.235Z,18.23
2018-12-15T05:31:38.702Z,15.58
2018-12-15T05:32:41.171Z,15.48
2018-12-15T05:33:43.633Z,14.90
2018-12-15T05:34:46.114Z,14.95
2018-12-15T05:35:48.583Z,16.77
2018-12-15T05:36:51.057Z,14.58
2018-12-15T05:37:53.523Z,15.45
2018-12-15T05:38:55.980Z,15.63
2018-12-15T05:39:58.418Z,14.93
2018-12-15T05:41:00.888Z,15.85
2018-12-15T05:42:03.340Z,13.95
2018-12-15T05:43:05.791Z,14.83
2018-12-15T05:44:08.238Z,16.52
2018-12-15T05:45:10.690Z,16.50
2018-12-15T05:46:13.144Z,15.80
2018-12-15T05:47:15.583Z,16.95
2018-12-15T05:48:24.823Z,16.42
2018-12-15T05:49:22.506Z,15.50
2018-12-15T05:50:25.016Z,16.85
2018-12-15T05:51:27.483Z,17.00
2018-12-15T05:52:29.950Z,15.30
2018-12-15T05:53:33.485Z,14.70
2018-12-15T05:54:35.930Z,14.30
2018-12-15T05:55:38.387Z,13.30
2018-12-15T05:56:40.868Z,13.43
2018-12-15T05:57:43.303Z,14.15
2018-12-15T05:58:45.756Z,15.35
2018-12-15T05:59:48.199Z,14.90
2018-12-15T06:00:50.631Z,15.40
2018-12-15T06:01:53.067Z,14.90
2018-12-15T06:02:55.523Z,14.50
2018-12-15T06:03:57.958Z,13.95
2018-12-15T06:05:00.485Z,14.28
2018-12-15T06:06:02.926Z,13.62
2018-12-15T06:07:05.371Z,14.13
2018-12-15T06:08:07.832Z,16.90
2018-12-15T06:09:10.279Z,14.83
2018-12-15T06:10:12.747Z,15.48
2018-12-15T06:11:15.179Z,14.20
2018-12-15T06:12:17.614Z,14.15
2018-12-15T06:13:20.092Z,13.68
2018-12-15T06:14:23.215Z,14.00
2018-12-15T06:15:25.642Z,12.45
2018-12-15T06:16:28.183Z,13.83
2018-12-15T06:17:30.614Z,12.85
2018-12-15T06:18:33.067Z,12.43
2018-12-15T06:19:35.721Z,12.55
2018-12-15T06:20:38.278Z,12.70
2018-12-15T06:21:40.758Z,12.55
2018-12-15T06:22:43.200Z,12.25
2018-12-15T06:23:45.692Z,13.32
2018-12-15T06:24:48.149Z,12.82
2018-12-15T06:25:50.581Z,12.45
2018-12-15T06:26:53.046Z,12.33
2018-12-15T06:27:55.579Z,11.28
2018-12-15T06:28:58.028Z,11.90
2018-12-15T06:30:00.500Z,11.97
2018-12-15T06:31:02.941Z,12.33
2018-12-15T06:32:05.389Z,12.35
2018-12-15T06:33:07.823Z,12.10
2018-12-15T06:34:10.267Z,12.53
2018-12-15T06:35:12.714Z,12.25
2018-12-15T06:36:15.149Z,14.03
2018-12-15T06:37:17.592Z,12.63
2018-12-15T06:38:20.063Z,13.90
2018-12-15T06:39:22.615Z,13.50
2018-12-15T06:40:25.451Z,14.05
2018-12-15T06:41:27.914Z,13.70
2018-12-15T06:42:30.359Z,13.62
2018-12-15T06:43:33.088Z,12.90
2018-12-15T06:44:35.539Z,11.12
2018-12-15T06:45:38.096Z,12.03
2018-12-15T06:46:40.535Z,12.80
2018-12-15T06:47:42.968Z,11.35
2018-12-15T06:48:45.434Z,12.33
2018-12-15T06:49:47.980Z,15.20
2018-12-15T06:50:50.451Z,15.38
2018-12-15T06:51:52.900Z,15.03
2018-12-15T06:52:55.340Z,13.83
2018-12-15T06:53:57.776Z,13.93
2018-12-15T06:55:00.237Z,13.70
2018-12-15T06:56:02.724Z,13.35
2018-12-15T06:57:05.186Z,13.48
2018-12-15T06:58:07.658Z,13.50
2018-12-15T06:59:10.118Z,13.80
2018-12-15T07:00:13.542Z,13.80
2018-12-15T07:01:15.997Z,13.00
2018-12-15T07:02:18.464Z,13.90
2018-12-15T07:03:20.919Z,13.25
2018-12-15T07:04:23.380Z,11.20
2018-12-15T07:05:25.895Z,11.15
2018-12-15T07:06:28.382Z,10.98
2018-12-15T07:07:30.844Z,10.90
2018-12-15T07:08:33.289Z,10.98
2018-12-15T07:09:36.919Z,11.03
2018-12-15T07:10:39.378Z,11.45
2018-12-15T07:11:41.859Z,10.82
2018-12-15T07:12:44.814Z,10.53
2018-12-15T07:13:47.254Z,10.18
2018-12-15T07:14:49.721Z,11.97
2018-12-15T07:15:52.257Z,12.82
2018-12-15T07:16:54.876Z,10.70
2018-12-15T07:17:57.342Z,10.30
2018-12-15T07:18:59.838Z,11.38
2018-12-15T07:20:02.685Z,9.65
2018-12-15T07:21:05.141Z,9.93
2018-12-15T07:22:07.595Z,10.25
2018-12-15T07:23:10.060Z,10.40
2018-12-15T07:24:12.579Z,9.75
2018-12-15T07:25:15.049Z,9.68
2018-12-15T07:26:17.565Z,10.43
2018-12-15T07:27:20.049Z,9.90
2018-12-15T07:28:23.003Z,10.10
2018-12-15T07:29:25.780Z,10.10
2018-12-15T07:30:28.577Z,10.60
2018-12-15T07:31:31.129Z,10.68
2018-12-15T07:32:34.266Z,10.88
2018-12-15T07:33:36.742Z,10.75
2018-12-15T07:34:47.359Z,10.03
2018-12-15T07:35:50.137Z,10.63
2018-12-15T07:36:52.747Z,10.60
2018-12-15T07:37:55.206Z,10.18
2018-12-15T07:38:58.071Z,10.60
2018-12-15T07:40:01.013Z,9.83
2018-12-15T07:41:03.851Z,10.30
2018-12-15T07:42:07.683Z,11.25
2018-12-15T07:43:10.465Z,9.95
2018-12-15T07:44:12.907Z,10.98
2018-12-15T07:45:15.347Z,9.65
2018-12-15T07:46:17.785Z,10.00
2018-12-15T07:47:20.251Z,9.95
2018-12-15T07:48:22.707Z,10.65
2018-12-15T07:49:25.147Z,10.45
2018-12-15T07:50:27.622Z,10.40
2018-12-15T07:51:30.167Z,11.57
2018-12-15T07:52:32.725Z,11.10
2018-12-15T07:53:35.345Z,11.25
2018-12-15T07:54:37.783Z,10.32
2018-12-15T07:55:40.226Z,9.53
2018-12-15T07:56:42.671Z,9.48
2018-12-15T07:57:45.133Z,9.70
2018-12-15T07:58:47.600Z,10.08
2018-12-15T07:59:50.061Z,9.88
2018-12-15T08:00:52.508Z,12.13
2018-12-15T08:01:55.094Z,10.80
2018-12-15T08:02:57.627Z,11.03
2018-12-15T08:04:00.147Z,11.10
2018-12-15T08:05:02.592Z,11.05
2018-12-15T08:06:05.033Z,11.15
2018-12-15T08:07:07.501Z,11.38
2018-12-15T08:08:09.972Z,12.00
2018-12-15T08:09:12.444Z,12.43
2018-12-15T08:10:16.876Z,13.00
2018-12-15T08:11:24.962Z,12.58
2018-12-15T08:12:33.016Z,13.75
2018-12-15T08:13:35.587Z,13.75
2018-12-15T08:14:38.102Z,14.25
2018-12-15T08:15:40.584Z,14.60
2018-12-15T08:16:43.106Z,12.88
2018-12-15T08:17:45.619Z,13.65
2018-12-15T08:18:48.142Z,13.15
2018-12-15T08:19:51.823Z,12.93
2018-12-15T08:20:54.348Z,13.48
2018-12-15T08:21:57.080Z,14.13
2018-12-15T08:22:59.690Z,14.87
2018-12-15T08:24:02.408Z,14.05
2018-12-15T08:25:05.916Z,13.08
2018-12-15T08:26:09.013Z,13.53
2018-12-15T08:27:11.544Z,12.15
2018-12-15T08:28:14.055Z,13.80
2018-12-15T08:29:16.541Z,13.15
2018-12-15T08:30:19.020Z,12.80
2018-12-15T08:31:21.503Z,14.00
2018-12-15T08:32:24.168Z,12.80
2018-12-15T08:33:26.774Z,13.58
2018-12-15T08:34:30.948Z,12.75
2018-12-15T08:35:33.407Z,13.83
2018-12-15T08:36:35.912Z,13.38
2018-12-15T08:37:41.641Z,14.50
2018-12-15T08:38:44.143Z,12.65
2018-12-15T08:39:47.685Z,13.25
2018-12-15T08:40:50.222Z,14.30
2018-12-15T08:41:52.706Z,12.25
2018-12-15T08:42:56.023Z,13.25
2018-12-15T08:43:58.563Z,13.30
2018-12-15T08:45:01.031Z,14.87
2018-12-15T08:46:04.685Z,13.28
2018-12-15T08:47:07.148Z,14.18
2018-12-15T08:48:09.865Z,15.05
2018-12-15T08:49:12.553Z,14.70
2018-12-15T08:50:16.053Z,13.30
2018-12-15T08:51:18.508Z,13.70
2018-12-15T08:52:20.950Z,13.55
2018-12-15T08:53:23.589Z,13.28
2018-12-15T08:54:26.060Z,14.00
2018-12-15T08:55:28.526Z,13.70
2018-12-15T08:56:30.978Z,13.10
2018-12-15T08:57:33.414Z,13.60
2018-12-15T08:58:35.871Z,12.85
2018-12-15T08:59:38.354Z,13.10
2018-12-15T09:00:40.838Z,13.35
2018-12-15T09:01:43.278Z,13.70
2018-12-15T09:02:45.713Z,13.45
2018-12-15T09:03:48.151Z,13.53
2018-12-15T09:04:50.605Z,13.68
2018-12-15T09:05:53.138Z,14.43
2018-12-15T09:06:55.591Z,14.43
2018-12-15T09:07:58.047Z,12.88
2018-12-15T09:09:00.491Z,13.70
2018-12-15T09:10:03.043Z,14.58
2018-12-15T09:11:05.593Z,14.40
2018-12-15T09:12:08.059Z,13.75
2018-12-15T09:13:10.494Z,14.38
2018-12-15T09:14:12.931Z,13.88
2018-12-15T09:15:15.378Z,13.85
2018-12-15T09:16:17.845Z,14.60
2018-12-15T09:17:20.322Z,14.45
2018-12-15T09:18:22.777Z,14.18
2018-12-15T09:19:25.231Z,12.98
2018-12-15T09:20:27.769Z,13.90
2018-12-15T09:21:30.243Z,13.22
2018-12-15T09:22:32.699Z,13.10
2018-12-15T09:23:35.154Z,13.60
2018-12-15T09:24:37.698Z,14.33
2018-12-15T09:25:40.129Z,15.23
2018-12-15T09:26:42.603Z,14.05
2018-12-15T09:27:45.063Z,14.07
2018-12-15T09:28:47.579Z,14.93
2018-12-15T09:29:50.057Z,15.10
2018-12-15T09:30:52.506Z,16.10
2018-12-15T09:31:55.004Z,15.40
2018-12-15T09:32:57.468Z,14.30
2018-12-15T09:33:59.906Z,14.73
2018-12-15T09:35:02.382Z,14.68
2018-12-15T09:36:04.860Z,15.23
2018-12-15T09:37:07.320Z,15.30
2018-12-15T09:38:09.751Z,15.08
2018-12-15T09:39:12.238Z,15.75
2018-12-15T09:40:14.760Z,16.10
2018-12-15T09:41:17.210Z,14.30
2018-12-15T09:42:19.714Z,15.85
2018-12-15T09:43:22.163Z,16.23
2018-12-15T09:44:24.621Z,14.03
2018-12-15T09:45:27.069Z,14.93
2018-12-15T09:46:29.592Z,14.73
2018-12-15T09:47:32.054Z,14.68
2018-12-15T09:48:34.526Z,15.70
2018-12-15T09:49:36.958Z,15.53
2018-12-15T09:50:39.383Z,15.25
2018-12-15T09:51:41.912Z,16.20
2018-12-15T09:52:44.374Z,15.75
2018-12-15T09:53:46.838Z,15.25
2018-12-15T09:54:49.284Z,17.40
2018-12-15T09:55:51.724Z,17.20
2018-12-15T09:56:54.167Z,16.97
2018-12-15T09:57:56.619Z,16.42
2018-12-15T09:58:59.172Z,18.02
2018-12-15T10:00:01.603Z,16.70
2018-12-15T10:01:04.171Z,16.48
2018-12-15T10:02:06.696Z,16.75
2018-12-15T10:03:09.179Z,16.35
2018-12-15T10:04:11.624Z,16.35
2018-12-15T10:05:14.070Z,15.38
2018-12-15T10:06:16.505Z,16.37
2018-12-15T10:07:18.950Z,16.27
2018-12-15T10:08:21.433Z,15.35
2018-12-15T10:09:23.931Z,15.32
2018-12-15T10:10:26.457Z,15.95
2018-12-15T10:11:28.927Z,14.07
2018-12-15T10:12:31.443Z,15.00
2018-12-15T10:13:33.899Z,14.13
2018-12-15T10:14:36.379Z,15.08
2018-12-15T10:15:38.858Z,16.42
2018-12-15T10:16:41.299Z,16.23
2018-12-15T10:17:43.731Z,14.63
2018-12-15T10:18:46.229Z,17.02
2018-12-15T10:19:48.724Z,15.65
2018-12-15T10:20:51.156Z,16.20
2018-12-15T10:21:53.578Z,15.48
2018-12-15T10:22:56.029Z,15.20
2018-12-15T10:23:58.538Z,17.27
2018-12-15T10:25:00.981Z,17.35
2018-12-15T10:26:03.484Z,14.75
2018-12-15T10:27:05.918Z,14.60
2018-12-15T10:28:08.353Z,16.55
2018-12-15T10:29:12.807Z,15.98
2018-12-15T10:30:20.999Z,16.40
2018-12-15T10:31:29.033Z,14.55
2018-12-15T10:34:08.166Z,15.30
2018-12-15T10:35:10.635Z,15.23
2018-12-15T10:36:13.086Z,15.55
2018-12-15T10:37:15.523Z,15.05
2018-12-15T10:38:17.989Z,15.25
2018-12-15T10:39:20.565Z,14.13
2018-12-15T10:40:23.029Z,16.05
2018-12-15T10:41:25.494Z,17.57
2018-12-15T10:42:27.945Z,15.55
2018-12-15T10:43:30.463Z,15.25
2018-12-15T10:44:32.924Z,16.65
2018-12-15T10:45:35.382Z,14.95
2018-12-15T10:46:37.818Z,17.32
2018-12-15T10:47:40.299Z,36.68
2018-12-15T10:48:42.745Z,21.07
2018-12-15T10:49:45.240Z,16.07
2018-12-15T10:50:47.707Z,15.98
2018-12-15T10:51:50.168Z,14.90
2018-12-15T10:52:52.611Z,14.25
2018-12-15T10:53:55.043Z,14.98
2018-12-15T10:54:57.503Z,14.28
2018-12-15T10:56:00.131Z,14.00
2018-12-15T10:57:02.569Z,16.20
2018-12-15T10:58:05.067Z,15.95
2018-12-15T10:59:07.516Z,16.25
2018-12-15T11:00:11.954Z,16.52
2018-12-15T11:01:20.078Z,15.40
2018-12-15T11:02:22.520Z,16.95
2018-12-15T11:03:24.963Z,15.90
2018-12-15T11:04:27.394Z,15.83
2018-12-15T11:05:29.847Z,15.78
2018-12-15T11:06:32.298Z,17.45
2018-12-15T11:07:34.750Z,16.97
2018-12-15T11:08:37.196Z,17.98
2018-12-15T11:09:39.638Z,18.25
2018-12-15T11:10:42.098Z,22.37
2018-12-15T11:11:44.572Z,20.08
2018-12-15T11:12:47.003Z,22.17
2018-12-15T11:13:49.430Z,17.48
2018-12-15T11:14:51.870Z,18.62
2018-12-15T11:15:54.318Z,17.62
2018-12-15T11:16:56.777Z,16.07
2018-12-15T11:17:59.205Z,17.02
2018-12-15T11:19:01.636Z,14.55
2018-12-15T11:20:05.174Z,16.45
2018-12-15T11:21:07.725Z,15.32
2018-12-15T11:22:10.167Z,16.32
2018-12-15T11:23:12.606Z,16.90
2018-12-15T11:24:15.043Z,15.20
2018-12-15T11:25:17.478Z,15.63
2018-12-15T11:26:19.933Z,16.60
2018-12-15T11:27:22.411Z,14.73
2018-12-15T11:28:24.864Z,16.25
2018-12-15T11:29:27.306Z,15.32
2018-12-15T11:30:29.752Z,16.00
2018-12-15T11:31:32.202Z,16.15
2018-12-15T11:32:34.655Z,16.30
2018-12-15T11:33:37.122Z,16.50
2018-12-15T11:34:39.558Z,15.32
2018-12-15T11:35:42.004Z,15.35
2018-12-15T11:36:44.457Z,14.60
2018-12-15T11:37:46.944Z,15.30
2018-12-15T11:38:49.535Z,15.10
2018-12-15T11:39:51.995Z,16.57
2018-12-15T11:40:54.498Z,14.65
2018-12-15T11:41:57.001Z,14.70
2018-12-15T11:42:59.455Z,14.78
2018-12-15T11:44:01.934Z,15.40
2018-12-15T11:45:05.469Z,15.50
2018-12-15T11:46:07.974Z,16.07
2018-12-15T11:47:10.455Z,15.30
2018-12-15T11:48:13.433Z,15.30
2018-12-15T11:49:16.035Z,14.13
2018-12-15T11:50:18.496Z,14.50
2018-12-15T11:51:20.932Z,15.38
2018-12-15T11:52:23.399Z,15.03
2018-12-15T11:53:25.856Z,15.83
2018-12-15T11:54:28.324Z,19.50
2018-12-15T11:55:30.814Z,20.32
2018-12-15T11:56:33.291Z,18.12
2018-12-15T11:57:35.786Z,20.40
2018-12-15T11:58:38.239Z,14.93
2018-12-15T11:59:40.735Z,15.80
2018-12-15T12:00:43.168Z,14.78
2018-12-15T12:01:45.635Z,16.52
2018-12-15T12:02:48.117Z,16.57
2018-12-15T12:03:50.836Z,16.25
2018-12-15T12:04:53.327Z,15.65
2018-12-15T12:05:55.775Z,14.38
2018-12-15T12:06:58.220Z,16.40
2018-12-15T12:08:00.683Z,15.30
2018-12-15T12:09:04.088Z,15.72
2018-12-15T12:10:07.234Z,14.90
2018-12-15T12:11:09.713Z,15.93
2018-12-15T12:12:12.173Z,17.07
2018-12-15T12:13:14.628Z,15.18
2018-12-15T12:14:17.134Z,15.15
2018-12-15T12:15:19.661Z,15.08
2018-12-15T12:16:22.128Z,15.20
2018-12-15T12:17:24.575Z,16.85
2018-12-15T12:18:27.029Z,16.15
2018-12-15T12:19:29.481Z,13.62
2018-12-15T12:20:31.920Z,13.72
2018-12-15T12:21:34.388Z,16.70
2018-12-15T12:22:37.188Z,14.93
2018-12-15T12:23:39.642Z,14.75
2018-12-15T12:24:42.249Z,13.45
2018-12-15T12:25:44.680Z,15.23
2018-12-15T12:26:47.117Z,15.50
2018-12-15T12:27:49.567Z,15.20
2018-12-15T12:28:52.157Z,13.95
2018-12-15T12:29:54.632Z,15.60
2018-12-15T12:30:57.186Z,14.05
2018-12-15T12:31:59.686Z,15.55
2018-12-15T12:33:02.131Z,13.15
2018-12-15T12:34:04.595Z,15.18
2018-12-15T12:35:07.136Z,16.10
2018-12-15T12:36:09.582Z,13.93
2018-12-15T12:37:12.025Z,15.43
2018-12-15T12:38:14.463Z,16.32
2018-12-15T12:39:16.916Z,14.58
2018-12-15T12:40:19.364Z,15.45
2018-12-15T12:41:21.814Z,13.80
2018-12-15T12:42:24.255Z,14.28
2018-12-15T12:43:26.697Z,13.88
2018-12-15T12:44:29.151Z,13.28
2018-12-15T12:45:31.835Z,13.65
2018-12-15T12:46:34.346Z,13.93
2018-12-15T12:47:36.779Z,14.28
2018-12-15T12:48:39.344Z,13.83
2018-12-15T12:49:41.818Z,13.65
2018-12-15T12:50:44.266Z,13.50
2018-12-15T12:51:46.718Z,13.45
2018-12-15T12:52:49.155Z,15.20
2018-12-15T12:53:51.587Z,14.13
2018-12-15T12:54:54.046Z,13.62
2018-12-15T12:55:56.502Z,13.80
2018-12-15T12:56:58.935Z,13.90
2018-12-15T12:58:01.376Z,12.47
2018-12-15T12:59:03.896Z,13.62
2018-12-15T13:00:06.717Z,15.08
2018-12-15T13:01:09.171Z,14.60
2018-12-15T13:02:11.612Z,16.27
2018-12-15T13:03:14.058Z,17.32
2018-12-15T13:04:16.492Z,15.30
2018-12-15T13:05:18.945Z,18.67
2018-12-15T13:06:21.393Z,23.42
2018-12-15T13:07:23.823Z,39.30
2018-12-15T13:08:26.280Z,15.13
2018-12-15T13:09:28.723Z,13.32
2018-12-15T13:10:31.176Z,12.75
2018-12-15T13:11:33.919Z,13.68
2018-12-15T13:12:36.585Z,14.05
2018-12-15T13:13:39.871Z,12.15
2018-12-15T13:14:42.686Z,12.63
2018-12-15T13:15:45.253Z,12.80
2018-12-15T13:16:47.788Z,11.83
2018-12-15T13:17:50.282Z,12.60
2018-12-15T13:18:53.876Z,11.78
2018-12-15T13:19:56.488Z,13.45
2018-12-15T13:20:59.058Z,13.55
2018-12-15T13:22:01.541Z,11.70
2018-12-15T13:23:04.041Z,12.70
2018-12-15T13:24:06.830Z,12.40
2018-12-15T13:25:09.339Z,13.83
2018-12-15T13:26:11.794Z,12.73
2018-12-15T13:27:14.246Z,11.70
2018-12-15T13:28:16.676Z,13.10